Time;durP1;ratioP1;P1;durP2;ratioP2;P2;SDS_P1;SDS_P2;PMS_P1;PMS_P2;Temp;Humidity;BMP_temperature;BMP_pressure;BME280_temperature;BME280_humidity;BME280_pressure;Samples;Min_cycle;Max_cycle;Signal;HPM_P1;HPM_P2
2024/01/03 00:00:28;;;;;;;;;;;;;;;19.83;34.83;94060.88;10506652;28;4850;-70
2024/01/03 00:05:31;;;;;;;;;;;;;;;19.82;35.12;94046.22;10514000;28;1997;-70
2024/01/03 00:10:41;;;;;;;;;;;;;;;19.79;34.67;94052.84;10508569;28;2015;-71
2024/01/03 00:16:01;;;;;;;;;;;;;;;19.77;34.49;94044.50;10505515;28;2095;-70
2024/01/03 00:21:07;;;;;;;;;;;;;;;19.74;34.88;94044.34;10506646;28;2036;-71
2024/01/03 00:26:07;;;;;;;;;;;;;;;19.70;34.70;94062.56;10506004;28;2278;-71
2024/01/03 00:31:31;;;;;;;;;;;;;;;19.70;34.87;94054.69;10493354;28;1929;-72
2024/01/03 00:36:32;;;;;;;;;;;;;;;19.66;34.72;94050.38;10496955;28;2042;-71
2024/01/03 00:41:32;;;;;;;;;;;;;;;19.66;34.73;94047.75;10491576;28;2126;-71
2024/01/03 00:46:32;;;;;;;;;;;;;;;19.63;34.49;94072.00;10512598;28;2012;-71
2024/01/03 00:51:35;;;;;;;;;;;;;;;19.61;35.11;94106.50;10494593;28;1950;-70
2024/01/03 00:56:35;;;;;;;;;;;;;;;19.58;34.56;94053.78;10511875;28;5195;-70
2024/01/03 01:01:36;;;;;;;;;;;;;;;19.56;34.69;94088.22;10509816;28;1942;-69
2024/01/03 01:06:36;;;;;;;;;;;;;;;19.55;34.72;94075.41;10507537;28;2095;-70
2024/01/03 01:11:36;;;;;;;;;;;;;;;19.53;34.72;94069.66;10506138;28;2096;-70
2024/01/03 01:16:36;;;;;;;;;;;;;;;19.50;34.54;94089.44;10505351;28;2224;-70
2024/01/03 01:21:39;;;;;;;;;;;;;;;19.49;34.76;94101.81;10509138;28;2163;-71
2024/01/03 01:26:39;;;;;;;;;;;;;;;19.45;34.92;94087.72;10516142;28;2231;-70
2024/01/03 01:31:40;;;;;;;;;;;;;;;19.45;34.99;94102.75;10516314;28;2014;-70
2024/01/03 01:36:40;;;;;;;;;;;;;;;19.44;34.80;94103.81;10515333;28;2254;-70
2024/01/03 01:41:41;;;;;;;;;;;;;;;19.42;35.22;94121.75;10519913;28;1886;-71
2024/01/03 01:46:41;;;;;;;;;;;;;;;19.40;34.95;94127.31;10510918;28;2122;-70
2024/01/03 01:51:41;;;;;;;;;;;;;;;19.39;35.39;94130.25;10495693;28;2023;-70
2024/01/03 01:56:41;;;;;;;;;;;;;;;19.38;34.94;94129.47;10516926;28;4857;-70
2024/01/03 02:01:42;;;;;;;;;;;;;;;19.36;35.28;94138.72;10517298;28;1997;-70
2024/01/03 02:06:42;;;;;;;;;;;;;;;19.35;34.87;94140.56;10517641;28;1929;-71
2024/01/03 02:11:43;;;;;;;;;;;;;;;19.33;35.21;94142.72;10515296;28;2009;-70
2024/01/03 02:16:43;;;;;;;;;;;;;;;19.32;35.25;94135.13;10507354;28;2048;-70
2024/01/03 02:21:43;;;;;;;;;;;;;;;19.30;34.94;94127.56;10497263;28;2005;-70
2024/01/03 02:26:43;;;;;;;;;;;;;;;19.29;34.65;94131.25;10507887;28;2345;-69
2024/01/03 02:31:44;;;;;;;;;;;;;;;19.27;35.06;94135.25;10517289;28;2055;-70
2024/01/03 02:36:46;;;;;;;;;;;;;;;19.26;35.07;94137.13;10518038;28;1945;-70
2024/01/03 02:41:46;;;;;;;;;;;;;;;19.23;35.00;94132.47;10479695;28;2076;-70
2024/01/03 02:46:46;;;;;;;;;;;;;;;19.21;35.01;94124.09;10510403;28;1972;-70
2024/01/03 02:51:47;;;;;;;;;;;;;;;19.21;35.06;94154.84;10514178;28;2216;-70
2024/01/03 02:56:47;;;;;;;;;;;;;;;19.18;34.84;94158.88;10505124;28;4937;-70
2024/01/03 03:01:47;;;;;;;;;;;;;;;19.17;35.06;94141.56;10509563;28;2080;-70
2024/01/03 03:06:47;;;;;;;;;;;;;;;19.14;35.07;94144.81;10514768;28;2099;-70
2024/01/03 03:11:48;;;;;;;;;;;;;;;19.14;35.09;94151.91;10508784;28;2080;-70
2024/01/03 03:16:48;;;;;;;;;;;;;;;19.11;35.64;94145.38;10511293;28;1925;-70
2024/01/03 03:21:48;;;;;;;;;;;;;;;19.09;35.39;94147.53;10511710;28;2099;-70
2024/01/03 03:26:49;;;;;;;;;;;;;;;19.09;35.02;94146.75;10513078;28;2481;-70
2024/01/03 03:31:49;;;;;;;;;;;;;;;19.06;35.41;94148.13;10525794;28;1972;-70
2024/01/03 03:36:49;;;;;;;;;;;;;;;19.04;35.33;94131.91;10507470;28;2115;-70
2024/01/03 03:41:49;;;;;;;;;;;;;;;19.04;35.07;94134.53;10508675;28;2187;-70
2024/01/03 03:46:50;;;;;;;;;;;;;;;19.02;35.21;94144.56;10510686;28;2527;-69
2024/01/03 03:51:50;;;;;;;;;;;;;;;19.02;35.00;94141.19;10510469;28;2115;-70
2024/01/03 03:56:50;;;;;;;;;;;;;;;18.99;35.96;94137.31;10508268;28;4959;-70
2024/01/03 04:01:51;;;;;;;;;;;;;;;18.98;35.25;94146.25;10493436;28;1920;-70
2024/01/03 04:06:51;;;;;;;;;;;;;;;18.95;35.24;94128.47;10510981;28;1995;-69
2024/01/03 04:11:51;;;;;;;;;;;;;;;18.95;35.59;94135.56;10509267;28;2238;-70
2024/01/03 04:16:51;;;;;;;;;;;;;;;18.94;35.05;94145.28;10516820;28;1978;-70
2024/01/03 04:21:54;;;;;;;;;;;;;;;18.92;35.01;94147.44;10510443;28;2063;-69
2024/01/03 04:26:54;;;;;;;;;;;;;;;18.91;35.25;94172.16;10496576;28;2448;-70
2024/01/03 04:31:54;;;;;;;;;;;;;;;18.90;35.14;94154.09;10506898;28;1934;-70
2024/01/03 04:36:57;;;;;;;;;;;;;;;18.87;35.38;94160.72;10506054;28;1978;-70
2024/01/03 04:41:57;;;;;;;;;;;;;;;18.87;35.34;94146.81;10511823;28;2001;-70
2024/01/03 04:46:58;;;;;;;;;;;;;;;18.85;35.45;94147.13;10513786;28;2075;-70
2024/01/03 04:51:58;;;;;;;;;;;;;;;18.83;35.55;94146.63;10502650;28;2053;-70
2024/01/03 04:56:58;;;;;;;;;;;;;;;18.83;35.61;94159.78;10513767;28;4867;-71
2024/01/03 05:01:58;;;;;;;;;;;;;;;18.81;35.11;94161.13;10514618;28;1996;-70
2024/01/03 05:06:59;;;;;;;;;;;;;;;18.80;36.28;94160.34;10512753;28;1951;-70
2024/01/03 05:11:59;;;;;;;;;;;;;;;18.82;36.10;94162.66;10514567;28;2031;-70
2024/01/03 05:16:59;;;;;;;;;;;;;;;18.87;36.03;94162.56;10512087;28;2126;-71
2024/01/03 05:21:59;;;;;;;;;;;;;;;18.93;35.91;94154.25;10500686;28;2041;-70
2024/01/03 05:27:00;;;;;;;;;;;;;;;19.01;35.55;94161.41;10519283;28;1923;-71
2024/01/03 05:32:00;;;;;;;;;;;;;;;19.06;35.28;94182.28;10517860;28;2032;-70
2024/01/03 05:37:02;;;;;;;;;;;;;;;19.12;35.47;94186.34;10511819;28;2210;-70
2024/01/03 05:42:02;;;;;;;;;;;;;;;19.16;35.58;94195.19;10515275;28;2493;-70
2024/01/03 05:47:03;;;;;;;;;;;;;;;19.23;35.45;94227.03;10516487;28;2840;-70
2024/01/03 05:52:04;;;;;;;;;;;;;;;19.28;35.06;94224.28;10521071;28;1945;-70
2024/01/03 05:57:04;;;;;;;;;;;;;;;19.31;35.22;94218.41;10492918;28;4885;-70
2024/01/03 06:02:05;;;;;;;;;;;;;;;19.33;35.04;94221.53;10516185;28;2019;-71
2024/01/03 06:07:05;;;;;;;;;;;;;;;19.37;34.86;94234.88;10517248;28;2100;-71
2024/01/03 06:12:05;;;;;;;;;;;;;;;19.40;34.91;94235.03;10495838;28;2046;-71
2024/01/03 06:17:05;;;;;;;;;;;;;;;19.40;35.18;94234.25;10513303;28;2006;-70
2024/01/03 06:22:06;;;;;;;;;;;;;;;19.44;35.09;94235.19;10519356;28;2107;-70
2024/01/03 06:27:06;;;;;;;;;;;;;;;19.45;34.75;94248.03;10521653;28;1999;-70
2024/01/03 06:32:06;;;;;;;;;;;;;;;19.49;35.10;94250.84;10506672;28;1960;-71
2024/01/03 06:37:06;;;;;;;;;;;;;;;19.51;35.03;94259.22;10520980;28;2394;-71
2024/01/03 06:42:07;;;;;;;;;;;;;;;19.56;34.67;94253.81;10512119;28;2047;-70
2024/01/03 06:47:07;;;;;;;;;;;;;;;19.60;35.18;94251.38;10514711;28;1998;-70
2024/01/03 06:52:07;;;;;;;;;;;;;;;19.62;34.95;94252.59;10513740;28;1977;-71
2024/01/03 06:57:08;;;;;;;;;;;;;;;19.65;34.69;94261.72;10511607;28;5015;-71
2024/01/03 07:02:08;;;;;;;;;;;;;;;19.70;34.62;94262.38;10515569;28;2024;-70
2024/01/03 07:07:08;;;;;;;;;;;;;;;19.71;34.95;94269.19;10511445;28;1992;-70
2024/01/03 07:12:08;;;;;;;;;;;;;;;19.76;34.81;94281.44;10497544;28;1989;-71
2024/01/03 07:17:09;;;;;;;;;;;;;;;19.77;34.87;94267.97;10518261;28;1873;-71
2024/01/03 07:22:09;;;;;;;;;;;;;;;19.81;35.03;94271.53;10512343;28;2027;-70
2024/01/03 07:27:09;;;;;;;;;;;;;;;19.81;34.79;94284.69;10511036;28;1908;-70
2024/01/03 07:32:10;;;;;;;;;;;;;;;19.87;34.54;94294.00;10518291;28;2440;-71
2024/01/03 07:37:10;;;;;;;;;;;;;;;19.85;34.37;94290.09;10515241;28;1941;-70
2024/01/03 07:42:10;;;;;;;;;;;;;;;19.84;34.25;94283.31;10513307;28;1943;-67
2024/01/03 07:47:11;;;;;;;;;;;;;;;19.83;34.14;94294.91;10516317;28;1921;-67
2024/01/03 07:52:11;;;;;;;;;;;;;;;19.83;34.38;94292.28;10513346;28;1928;-67
2024/01/03 07:57:11;;;;;;;;;;;;;;;19.85;34.15;94301.41;10512199;28;4928;-67
2024/01/03 08:02:12;;;;;;;;;;;;;;;19.89;34.06;94291.84;10514293;28;1888;-67
2024/01/03 08:07:12;;;;;;;;;;;;;;;19.89;34.11;94322.59;10497884;28;1923;-67
2024/01/03 08:12:12;;;;;;;;;;;;;;;19.88;34.30;94331.59;10515810;28;2383;-67
2024/01/03 08:17:13;;;;;;;;;;;;;;;19.91;34.32;94309.94;10511379;28;2037;-67
2024/01/03 08:22:13;;;;;;;;;;;;;;;19.90;34.65;94300.50;10513008;28;1923;-67
2024/01/03 08:27:13;;;;;;;;;;;;;;;19.95;34.47;94316.13;10516164;28;2420;-68
2024/01/03 08:32:13;;;;;;;;;;;;;;;19.95;34.55;94316.91;10512595;28;1942;-67
2024/01/03 08:37:14;;;;;;;;;;;;;;;19.94;34.27;94294.34;10517445;28;2060;-67
2024/01/03 08:42:14;;;;;;;;;;;;;;;19.99;34.28;94296.06;10530987;28;2111;-68
2024/01/03 08:47:14;;;;;;;;;;;;;;;19.97;34.32;94309.50;10523181;28;1944;-67
2024/01/03 08:52:15;;;;;;;;;;;;;;;20.00;34.36;94308.91;10495062;28;1989;-67
2024/01/03 08:57:15;;;;;;;;;;;;;;;20.01;34.46;94317.59;10505401;28;4843;-68
2024/01/03 09:02:15;;;;;;;;;;;;;;;20.04;34.68;94298.53;10504921;28;1964;-68
2024/01/03 09:07:18;;;;;;;;;;;;;;;20.06;35.01;94317.44;10513492;28;2083;-68
2024/01/03 09:12:19;;;;;;;;;;;;;;;20.09;34.92;94316.84;10515275;28;1914;-67
2024/01/03 09:17:19;;;;;;;;;;;;;;;20.08;34.69;94312.63;10513654;28;1896;-67
2024/01/03 09:22:20;;;;;;;;;;;;;;;20.08;34.73;94291.59;10514777;28;1878;-67
2024/01/03 09:27:20;;;;;;;;;;;;;;;20.08;35.11;94288.97;10518967;28;2611;-68
2024/01/03 09:32:20;;;;;;;;;;;;;;;20.10;35.15;94287.59;10524238;28;2011;-67
2024/01/03 09:37:21;;;;;;;;;;;;;;;20.14;34.53;94283.25;10508960;28;2063;-68
2024/01/03 09:42:21;;;;;;;;;;;;;;;20.14;34.79;94293.00;10516817;28;2182;-68
2024/01/03 09:47:21;;;;;;;;;;;;;;;20.15;34.80;94305.09;10514222;28;1900;-68
2024/01/03 09:52:22;;;;;;;;;;;;;;;20.24;34.59;94300.66;10511104;28;1986;-67
2024/01/03 09:57:22;;;;;;;;;;;;;;;20.24;35.08;94283.00;10498280;28;4897;-67
2024/01/03 10:02:27;;;;;;;;;;;;;;;20.27;35.03;94297.41;10517501;28;1919;-68
2024/01/03 10:07:30;;;;;;;;;;;;;;;20.26;34.87;94306.38;10510098;28;2241;-68
2024/01/03 10:12:33;;;;;;;;;;;;;;;20.27;34.88;94279.78;10515558;28;1894;-68
2024/01/03 10:17:34;;;;;;;;;;;;;;;20.31;34.65;94294.94;10488084;28;1875;-68
2024/01/03 10:22:34;;;;;;;;;;;;;;;20.31;34.98;94287.03;10511521;28;1882;-68
2024/01/03 10:27:34;;;;;;;;;;;;;;;20.31;34.70;94279.16;10508707;28;2051;-68
2024/01/03 10:32:34;;;;;;;;;;;;;;;20.34;34.40;94291.72;10521648;28;2162;-68
2024/01/03 10:37:37;;;;;;;;;;;;;;;20.32;34.77;94280.72;10515165;28;2052;-68
2024/01/03 10:42:37;;;;;;;;;;;;;;;20.33;34.47;94280.41;10499451;28;2016;-68
2024/01/03 10:47:38;;;;;;;;;;;;;;;20.30;34.74;94267.84;10510229;28;1928;-67
2024/01/03 10:52:38;;;;;;;;;;;;;;;20.31;34.53;94279.16;10514739;28;2288;-67
2024/01/03 10:57:40;;;;;;;;;;;;;;;20.32;34.63;94262.28;10511474;28;4878;-68
2024/01/03 11:02:48;;;;;;;;;;;;;;;20.33;34.34;94264.63;10517810;28;1981;-68
2024/01/03 11:07:51;;;;;;;;;;;;;;;20.34;34.15;94270.66;10496948;28;1965;-68
2024/01/03 11:12:56;;;;;;;;;;;;;;;20.36;36.53;94256.09;10497194;28;1910;-69
2024/01/03 11:17:56;;;;;;;;;;;;;;;20.39;37.64;94242.31;10514812;28;1959;-69
2024/01/03 11:23:02;;;;;;;;;;;;;;;20.36;37.79;94229.78;10511539;28;2027;-69
2024/01/03 11:28:22;;;;;;;;;;;;;;;20.30;38.39;94220.47;10510490;28;1989;-70
2024/01/03 11:33:23;;;;;;;;;;;;;;;20.34;37.44;94231.94;10517871;28;2725;-70
2024/01/03 11:38:42;;;;;;;;;;;;;;;20.29;37.55;94237.38;10490955;28;1995;-67
2024/01/03 11:43:42;;;;;;;;;;;;;;;20.29;37.98;94218.94;10515568;28;1929;-66
2024/01/03 11:48:45;;;;;;;;;;;;;;;20.25;36.78;94208.28;10512101;28;1935;-67
2024/01/03 11:53:45;;;;;;;;;;;;;;;20.27;37.20;94207.94;10513836;28;2112;-66
2024/01/03 11:58:52;;;;;;;;;;;;;;;20.28;36.74;94209.50;10514144;28;2117;-67
2024/01/03 12:04:11;;;;;;;;;;;;;;;20.26;36.73;94198.50;10513658;28;1849;-66
2024/01/03 12:09:12;;;;;;;;;;;;;;;20.24;37.35;94187.50;10514501;28;1987;-66
2024/01/03 12:14:18;;;;;;;;;;;;;;;20.22;37.05;94189.66;10497815;28;1918;-67
2024/01/03 12:19:28;;;;;;;;;;;;;;;20.25;37.04;94181.97;10506883;28;2549;-66
2024/01/03 12:24:38;;;;;;;;;;;;;;;20.25;36.90;94184.59;10509940;28;2528;-65
2024/01/03 12:29:41;;;;;;;;;;;;;;;20.28;36.68;94201.59;10499392;28;7004;-66
2024/01/03 12:34:41;;;;;;;;;;;;;;;20.28;36.74;94186.59;10502711;28;5509;-67
2024/01/03 12:40:00;;;;;;;;;;;;;;;20.30;37.47;94175.00;10497302;28;10047;-66
2024/01/03 12:45:00;;;;;;;;;;;;;;;20.33;37.23;94188.28;10502432;28;5261;-65
2024/01/03 12:50:03;;;;;;;;;;;;;;;20.37;36.82;94176.06;10504974;28;5374;-67
2024/01/03 12:55:06;;;;;;;;;;;;;;;20.40;37.30;94201.78;10502837;28;5289;-67
2024/01/03 13:00:07;;;;;;;;;;;;;;;20.41;36.73;94182.25;10503632;28;2076;-67
2024/01/03 13:05:07;;;;;;;;;;;;;;;20.43;36.95;94160.88;10486191;28;2070;-66
2024/01/03 13:10:08;;;;;;;;;;;;;;;20.48;37.77;94168.66;10468577;28;8016;-66
2024/01/03 13:15:08;;;;;;;;;;;;;;;20.47;38.49;94159.97;10501988;28;5316;-69
2024/01/03 13:20:09;;;;;;;;;;;;;;;20.52;37.62;94166.94;10513466;28;5661;-65
2024/01/03 13:25:09;;;;;;;;;;;;;;;20.47;36.62;94159.19;10489640;28;7726;-68
2024/01/03 13:30:09;;;;;;;;;;;;;;;20.43;36.39;94156.41;10499735;28;5412;-65
2024/01/03 13:35:10;;;;;;;;;;;;;;;20.40;36.06;94149.16;10512364;28;5398;-68
2024/01/03 13:40:10;;;;;;;;;;;;;;;20.39;36.46;94142.31;10486801;28;2018;-68
2024/01/03 13:45:11;;;;;;;;;;;;;;;20.39;36.33;94146.81;10490625;28;5336;-68
2024/01/03 13:50:12;;;;;;;;;;;;;;;20.31;36.10;94140.47;10505667;28;1946;-67
2024/01/03 13:55:12;;;;;;;;;;;;;;;20.31;36.70;94137.84;10505541;28;1948;-68
2024/01/03 14:00:13;;;;;;;;;;;;;;;20.26;36.39;94125.59;10510639;28;3693;-68
2024/01/03 14:05:16;;;;;;;;;;;;;;;20.21;36.54;94138.94;10503188;28;1959;-67
2024/01/03 14:10:16;;;;;;;;;;;;;;;20.18;36.99;94133.47;10511942;28;2421;-67
2024/01/03 14:15:16;;;;;;;;;;;;;;;20.10;37.97;94107.94;10493545;28;2051;-66
2024/01/03 14:20:17;;;;;;;;;;;;;;;20.06;37.37;94109.63;10510259;28;2054;-66
2024/01/03 14:25:17;;;;;;;;;;;;;;;20.05;37.41;94105.47;10502879;28;2004;-66
2024/01/03 14:30:17;;;;;;;;;;;;;;;19.98;37.93;94090.16;10504696;28;1938;-67
2024/01/03 14:35:17;;;;;;;;;;;;;;;19.98;37.60;94100.66;10506560;28;7550;-66
2024/01/03 14:40:20;;;;;;;;;;;;;;;19.95;38.01;94100.47;10505592;28;2070;-66
2024/01/03 14:45:20;;;;;;;;;;;;;;;19.95;37.99;94095.22;10501764;28;2065;-67
2024/01/03 14:50:20;;;;;;;;;;;;;;;20.00;37.24;94082.72;10498805;28;2052;-65
2024/01/03 14:55:21;;;;;;;;;;;;;;;20.03;37.02;94076.06;10485328;28;2258;-67
2024/01/03 15:00:23;;;;;;;;;;;;;;;20.04;36.85;94072.34;10504608;28;1974;-67
2024/01/03 15:05:23;;;;;;;;;;;;;;;20.08;37.07;94070.63;10507847;28;1908;-67
2024/01/03 15:10:24;;;;;;;;;;;;;;;20.09;37.73;94072.19;10507757;28;2020;-66
2024/01/03 15:15:24;;;;;;;;;;;;;;;20.13;36.53;94078.38;10506471;28;1936;-66
2024/01/03 15:20:24;;;;;;;;;;;;;;;20.16;36.86;94080.38;10507049;28;2033;-66
2024/01/03 15:25:26;;;;;;;;;;;;;;;20.18;36.82;94083.47;10491469;28;1982;-66
2024/01/03 15:30:27;;;;;;;;;;;;;;;20.19;36.89;94071.88;10507912;28;1996;-67
2024/01/03 15:35:27;;;;;;;;;;;;;;;20.19;37.30;94066.63;10492271;28;2265;-66
2024/01/03 15:40:30;;;;;;;;;;;;;;;20.22;36.31;94064.16;10506852;28;2117;-66
2024/01/03 15:45:30;;;;;;;;;;;;;;;20.24;36.42;94074.38;10504829;28;2048;-66
2024/01/03 15:50:32;;;;;;;;;;;;;;;20.24;36.42;94071.75;10519191;28;1977;-66
2024/01/03 15:55:32;;;;;;;;;;;;;;;20.23;36.69;94064.94;10506359;28;1880;-66
2024/01/03 16:00:32;;;;;;;;;;;;;;;20.25;36.75;94058.28;10511191;28;1999;-65
2024/01/03 16:05:32;;;;;;;;;;;;;;;20.28;36.24;94062.13;10504529;28;1987;-66
2024/01/03 16:10:33;;;;;;;;;;;;;;;20.24;36.52;94069.88;10502696;28;2033;-66
2024/01/03 16:15:33;;;;;;;;;;;;;;;20.28;36.41;94070.03;10512821;28;1981;-66
2024/01/03 16:20:34;;;;;;;;;;;;;;;20.26;36.48;94072.19;10509549;28;1902;-65
2024/01/03 16:25:34;;;;;;;;;;;;;;;20.28;36.47;94078.72;10505471;28;2193;-65
2024/01/03 16:30:34;;;;;;;;;;;;;;;20.24;36.55;94072.53;10513345;28;1935;-65
2024/01/03 16:35:34;;;;;;;;;;;;;;;20.24;36.50;94072.53;10505969;28;5010;-66
2024/01/03 16:40:35;;;;;;;;;;;;;;;20.24;36.59;94077.00;10506155;28;2049;-66
2024/01/03 16:45:35;;;;;;;;;;;;;;;20.25;35.99;94065.41;10493937;28;2048;-66
2024/01/03 16:50:35;;;;;;;;;;;;;;;20.27;36.00;94063.25;10508078;28;2052;-65
2024/01/03 16:55:37;;;;;;;;;;;;;;;20.26;35.87;94043.25;10498387;28;2280;-66
2024/01/03 17:00:37;;;;;;;;;;;;;;;20.25;35.75;94047.00;10519400;28;1881;-65
2024/01/03 17:05:37;;;;;;;;;;;;;;;20.27;36.66;94047.44;10511569;28;2143;-65
2024/01/03 17:10:37;;;;;;;;;;;;;;;20.29;36.20;94037.38;10517745;28;1913;-65
2024/01/03 17:15:40;;;;;;;;;;;;;;;20.34;35.85;94034.56;10513699;28;2091;-63
2024/01/03 17:20:40;;;;;;;;;;;;;;;20.40;35.86;94038.63;10519685;28;2276;-62
2024/01/03 17:25:40;;;;;;;;;;;;;;;20.40;35.57;94035.97;10510635;28;1942;-66
2024/01/03 17:30:41;;;;;;;;;;;;;;;20.49;35.63;94028.03;10514501;28;1937;-68
2024/01/03 17:35:41;;;;;;;;;;;;;;;20.53;35.58;94021.84;10508853;28;5075;-67
2024/01/03 17:40:41;;;;;;;;;;;;;;;20.56;35.42;94021.22;10517958;28;1989;-66
2024/01/03 17:45:42;;;;;;;;;;;;;;;20.61;35.19;94013.16;10507949;28;5386;-68
2024/01/03 17:50:42;;;;;;;;;;;;;;;20.62;35.25;94014.72;10523277;28;5428;-68
2024/01/03 17:55:42;;;;;;;;;;;;;;;20.63;35.01;94003.06;10512757;28;5370;-69
2024/01/03 18:00:43;;;;;;;;;;;;;;;20.65;35.14;93997.50;10511906;28;5413;-69
2024/01/03 18:05:43;;;;;;;;;;;;;;;20.65;34.95;93995.63;10502778;28;6144;-74
2024/01/03 18:10:44;;;;;;;;;;;;;;;20.66;34.89;93993.78;10510992;28;5371;-71
2024/01/03 18:15:44;;;;;;;;;;;;;;;20.66;35.04;94004.31;10505643;28;5292;-67
2024/01/03 18:20:44;;;;;;;;;;;;;;;20.69;35.13;93983.38;10512934;28;7909;-73
2024/01/03 18:25:45;;;;;;;;;;;;;;;20.71;34.78;93983.84;10480017;28;8233;-81
2024/01/03 18:30:46;;;;;;;;;;;;;;;20.69;34.59;93975.47;10514225;28;5343;-76
2024/01/03 18:35:46;;;;;;;;;;;;;;;20.68;34.75;93970.53;10490758;28;5383;-75
2024/01/03 18:40:46;;;;;;;;;;;;;;;20.69;34.82;93972.84;10497191;28;8215;-70
2024/01/03 18:45:48;;;;;;;;;;;;;;;20.73;34.54;93988.81;10509619;28;5313;-71
2024/01/03 18:50:48;;;;;;;;;;;;;;;20.72;34.04;93990.66;10508417;28;5346;-70
2024/01/03 18:55:48;;;;;;;;;;;;;;;20.74;34.21;93979.81;10502334;28;5295;-74
2024/01/03 19:00:50;;;;;;;;;;;;;;;20.77;34.04;93995.72;10497574;28;1970;-74
2024/01/03 19:05:51;;;;;;;;;;;;;;;20.79;33.82;93975.13;10504279;28;1961;-73
2024/01/03 19:10:51;;;;;;;;;;;;;;;20.85;33.93;93987.06;10497965;28;2054;-75
2024/01/03 19:15:51;;;;;;;;;;;;;;;20.82;34.47;93982.41;10503891;28;4909;-75
2024/01/03 19:20:51;;;;;;;;;;;;;;;20.81;34.74;93988.75;10508343;28;2128;-75
2024/01/03 19:25:52;;;;;;;;;;;;;;;20.80;34.50;93947.72;10504297;28;2268;-74
2024/01/03 19:30:52;;;;;;;;;;;;;;;20.78;34.43;93936.72;10498155;28;1905;-75
2024/01/03 19:35:53;;;;;;;;;;;;;;;20.76;34.75;93946.81;10494643;28;2111;-75
2024/01/03 19:40:53;;;;;;;;;;;;;;;20.74;34.36;93956.09;10500975;28;2135;-75
2024/01/03 19:45:54;;;;;;;;;;;;;;;20.72;34.32;93977.50;10486761;28;1961;-75
2024/01/03 19:50:56;;;;;;;;;;;;;;;20.71;34.92;93998.88;10509574;28;4996;-75
2024/01/03 19:55:57;;;;;;;;;;;;;;;20.67;33.93;94040.09;10489664;28;2043;-74
2024/01/03 20:00:57;;;;;;;;;;;;;;;20.64;34.28;94041.50;10510700;28;2111;-75
2024/01/03 20:05:57;;;;;;;;;;;;;;;20.63;34.16;94068.88;10502113;28;2205;-75
2024/01/03 20:11:00;;;;;;;;;;;;;;;20.59;34.03;94089.03;10500174;28;2020;-75
2024/01/03 20:16:00;;;;;;;;;;;;;;;20.58;34.04;94105.16;10509822;28;1897;-75
2024/01/03 20:21:01;;;;;;;;;;;;;;;20.56;34.10;94116.00;10499195;28;2116;-75
2024/01/03 20:26:06;;;;;;;;;;;;;;;20.56;34.51;94139.69;10510501;28;2034;-74
2024/01/03 20:31:07;;;;;;;;;;;;;;;20.56;33.96;94141.53;10514660;28;2064;-75
2024/01/03 20:36:07;;;;;;;;;;;;;;;20.56;33.88;94152.84;10515935;28;2017;-75
2024/01/03 20:41:08;;;;;;;;;;;;;;;20.56;33.86;94138.91;10502789;28;2076;-75
2024/01/03 20:46:08;;;;;;;;;;;;;;;20.55;33.83;94153.91;10504696;28;1944;-74
2024/01/03 20:51:15;;;;;;;;;;;;;;;20.54;34.16;94170.81;10487707;28;7294;-75
2024/01/03 20:56:15;;;;;;;;;;;;;;;20.53;34.45;94153.47;10512213;28;5491;-74
2024/01/03 21:01:15;;;;;;;;;;;;;;;20.50;34.54;94159.34;10497492;28;5276;-74
2024/01/03 21:06:17;;;;;;;;;;;;;;;20.49;35.14;94152.53;10512425;28;1877;-75
2024/01/03 21:11:18;;;;;;;;;;;;;;;20.48;34.83;94166.00;10516886;28;5385;-74
2024/01/03 21:16:19;;;;;;;;;;;;;;;20.45;34.86;94153.47;10516525;28;2032;-74
2024/01/03 21:21:19;;;;;;;;;;;;;;;20.43;34.78;94156.41;10514848;28;1989;-74
2024/01/03 21:26:20;;;;;;;;;;;;;;;20.37;36.46;94170.03;10518289;28;5183;-73
2024/01/03 21:31:21;;;;;;;;;;;;;;;20.35;35.77;94178.25;10501253;28;1958;-74
2024/01/03 21:36:21;;;;;;;;;;;;;;;20.31;35.15;94182.56;10496324;28;2288;-72
2024/01/03 21:41:21;;;;;;;;;;;;;;;20.29;36.17;94179.47;10513231;28;2043;-74
2024/01/03 21:46:22;;;;;;;;;;;;;;;20.28;35.07;94176.06;10514403;28;2060;-74
2024/01/03 21:51:23;;;;;;;;;;;;;;;20.23;35.19;94178.06;10511638;28;2163;-74
2024/01/03 21:56:23;;;;;;;;;;;;;;;20.21;34.83;94188.13;10508914;28;1977;-74
2024/01/03 22:01:23;;;;;;;;;;;;;;;20.18;34.30;94178.19;10511444;28;5089;-76
2024/01/03 22:06:23;;;;;;;;;;;;;;;20.12;34.32;94174.94;10510815;28;2060;-74
2024/01/03 22:11:25;;;;;;;;;;;;;;;20.10;34.62;94190.25;10492599;28;2177;-74
2024/01/03 22:16:25;;;;;;;;;;;;;;;20.07;35.59;94193.47;10524353;28;1911;-72
2024/01/03 22:21:27;;;;;;;;;;;;;;;20.09;34.97;94201.84;10525085;28;2269;-71
2024/01/03 22:26:27;;;;;;;;;;;;;;;20.05;35.04;94189.63;10531370;27;1530;-72
2024/01/03 22:31:27;;;;;;;;;;;;;;;20.07;34.75;94192.72;10534425;27;1972;-72
2024/01/03 22:36:30;;;;;;;;;;;;;;;19.99;35.06;94202.13;10525362;28;1572;-71
2024/01/03 22:41:30;;;;;;;;;;;;;;;19.98;35.16;94186.66;10526246;28;1846;-72
2024/01/03 22:46:36;;;;;;;;;;;;;;;19.97;35.36;94187.78;10528047;28;1604;-73
2024/01/03 22:51:40;;;;;;;;;;;;;;;19.97;35.33;94177.25;10504726;28;1917;-71
2024/01/03 22:56:40;;;;;;;;;;;;;;;19.98;35.08;94179.56;10524967;28;1865;-71
2024/01/03 23:01:40;;;;;;;;;;;;;;;19.96;34.97;94191.47;10524047;28;5023;-72
2024/01/03 23:06:42;;;;;;;;;;;;;;;19.95;35.77;94198.56;10521554;28;1575;-72
2024/01/03 23:11:42;;;;;;;;;;;;;;;19.91;35.25;94200.25;10521349;28;1878;-74
2024/01/03 23:16:42;;;;;;;;;;;;;;;19.85;35.47;94190.97;10519734;28;1684;-75
2024/01/03 23:21:43;;;;;;;;;;;;;;;19.79;35.39;94194.03;10524193;28;1479;-75
2024/01/03 23:26:43;;;;;;;;;;;;;;;19.77;35.76;94188.31;10523261;28;1435;-74
2024/01/03 23:31:43;;;;;;;;;;;;;;;19.71;35.79;94173.75;10519961;28;1909;-74
2024/01/03 23:36:43;;;;;;;;;;;;;;;19.68;36.08;94184.91;10517573;28;1579;-75
2024/01/03 23:41:44;;;;;;;;;;;;;;;19.61;36.28;94182.72;10518991;28;1753;-74
2024/01/03 23:46:44;;;;;;;;;;;;;;;19.60;35.91;94196.16;10515735;28;2276;-74
2024/01/03 23:51:44;;;;;;;;;;;;;;;19.59;36.09;94213.00;10520012;28;1909;-74
2024/01/03 23:56:45;;;;;;;;;;;;;;;19.54;36.18;94223.66;10497281;28;1982;-74
